Terminal Aerodrome Forecast
Issued by NWS

Home | Current Version | Previous Version | Text Only | Print | Product List | Glossary On
Versions: 1 2 3 4 5 6 7 8 9 10 11 12 13 14 15 16 17 18
000
FTUS43 KJKL 292336
TAFSJS
TAF
KSJS 292336Z 3000/3024 21006KT P6SM VCTS BKN035CB
     FM300200 VRB03KT P6SM SCT040
     FM300900 19003KT 2SM BR FEW120
     FM301300 19004KT P6SM SCT080
     FM301800 21007KT P6SM VCTS BKN060CB=

USA.gov is the U.S. government's official web portal to all federal, state and local government web resources and services.